createdAt,value
2018-03-03T00:00:46.127Z,35.28
2018-03-03T00:03:13.759Z,35.72
2018-03-03T00:05:41.371Z,37.08
2018-03-03T00:08:08.995Z,34.13
2018-03-03T00:10:36.573Z,35.47
2018-03-03T00:13:04.192Z,39.72
2018-03-03T00:15:31.804Z,38.90
2018-03-03T00:17:59.440Z,41.20
2018-03-03T00:20:27.022Z,41.92
2018-03-03T00:22:54.616Z,42.88
2018-03-03T00:25:22.224Z,41.53
2018-03-03T00:27:49.831Z,41.58
2018-03-03T00:30:17.414Z,39.70
2018-03-03T00:32:45.045Z,40.50
2018-03-03T00:35:12.688Z,38.55
2018-03-03T00:37:40.332Z,37.75
2018-03-03T00:40:07.932Z,38.85
2018-03-03T00:42:35.912Z,38.17
2018-03-03T00:45:03.521Z,41.75
2018-03-03T00:47:31.102Z,36.42
2018-03-03T00:49:58.707Z,39.85
2018-03-03T00:52:26.281Z,36.60
2018-03-03T00:54:53.888Z,39.00
2018-03-03T00:57:21.519Z,39.10
2018-03-03T00:59:49.181Z,41.08
2018-03-03T01:02:16.803Z,40.38
2018-03-03T01:04:44.434Z,39.35
2018-03-03T01:07:12.091Z,39.05
2018-03-03T01:09:39.716Z,40.05
2018-03-03T01:12:07.691Z,36.92
2018-03-03T01:14:35.316Z,41.08
2018-03-03T01:17:02.896Z,38.50
2018-03-03T01:19:30.557Z,38.55
2018-03-03T01:21:58.206Z,39.55
2018-03-03T01:24:25.811Z,40.85
2018-03-03T01:26:53.431Z,35.63
2018-03-03T01:29:21.074Z,39.95
2018-03-03T01:31:48.678Z,35.00
2018-03-03T01:34:16.256Z,34.88
2018-03-03T01:36:43.816Z,35.05
2018-03-03T01:39:11.412Z,37.13
2018-03-03T01:41:38.995Z,38.33
2018-03-03T01:44:06.611Z,37.80
2018-03-03T01:46:34.605Z,36.63
2018-03-03T01:49:02.232Z,38.75
2018-03-03T01:51:49.675Z,38.05
2018-03-03T01:54:17.312Z,36.10
2018-03-03T01:56:45.284Z,34.38
2018-03-03T01:59:12.905Z,37.05
2018-03-03T02:01:40.476Z,33.90
2018-03-03T02:04:08.069Z,34.67
2018-03-03T02:06:35.683Z,35.60
2018-03-03T02:09:03.268Z,35.50
2018-03-03T02:11:30.887Z,35.85
2018-03-03T02:13:58.459Z,33.55
2018-03-03T02:16:26.052Z,36.00
2018-03-03T02:18:53.639Z,39.38
2018-03-03T02:21:21.268Z,35.55
2018-03-03T02:23:48.862Z,32.92
2018-03-03T02:26:16.528Z,33.10
2018-03-03T02:28:44.120Z,31.00
2018-03-03T02:31:11.748Z,32.03
2018-03-03T02:33:39.320Z,34.20
2018-03-03T02:36:06.924Z,34.08
2018-03-03T02:38:34.923Z,35.22
2018-03-03T02:41:02.539Z,34.75
2018-03-03T02:43:30.151Z,35.30
2018-03-03T02:45:57.759Z,35.63
2018-03-03T02:48:25.351Z,35.50
2018-03-03T02:50:52.977Z,38.17
2018-03-03T02:53:20.575Z,36.80
2018-03-03T02:55:48.173Z,41.37
2018-03-03T02:58:15.806Z,37.22
2018-03-03T03:00:43.440Z,39.50
2018-03-03T03:03:11.042Z,40.00
2018-03-03T03:05:38.623Z,39.05
2018-03-03T03:08:06.228Z,39.28
2018-03-03T03:10:33.808Z,37.35
2018-03-03T03:13:01.433Z,36.30
2018-03-03T03:15:29.427Z,37.97
2018-03-03T03:17:57.050Z,38.47
2018-03-03T03:20:24.641Z,38.33
2018-03-03T03:22:52.253Z,39.50
2018-03-03T03:25:19.847Z,39.15
2018-03-03T03:27:47.466Z,38.08
2018-03-03T03:30:15.060Z,37.45
2018-03-03T03:32:42.676Z,37.90
2018-03-03T03:35:10.232Z,35.08
2018-03-03T03:37:37.851Z,36.45
2018-03-03T03:40:05.405Z,38.05
2018-03-03T03:42:33.019Z,35.15
2018-03-03T03:45:00.602Z,39.80
2018-03-03T03:47:28.172Z,35.40
2018-03-03T03:49:55.754Z,34.67
2018-03-03T03:52:23.400Z,33.22
2018-03-03T03:54:51.018Z,31.92
2018-03-03T03:57:18.611Z,31.87
2018-03-03T03:59:46.252Z,34.00
2018-03-03T04:02:13.866Z,32.83
2018-03-03T04:04:41.459Z,34.85
2018-03-03T04:07:09.022Z,35.03
2018-03-03T04:09:36.618Z,34.55
2018-03-03T04:12:04.202Z,34.65
2018-03-03T04:14:31.820Z,33.78
2018-03-03T04:16:59.404Z,34.10
2018-03-03T04:19:27.024Z,35.38
2018-03-03T04:21:54.994Z,30.62
2018-03-03T04:24:22.608Z,32.85
2018-03-03T04:26:50.198Z,32.85
2018-03-03T04:29:17.781Z,33.97
2018-03-03T04:31:45.707Z,32.88
2018-03-03T04:34:13.348Z,33.88
2018-03-03T04:36:40.978Z,32.50
2018-03-03T04:39:08.571Z,32.10
2018-03-03T04:41:36.132Z,33.00
2018-03-03T04:44:03.796Z,34.35
2018-03-03T04:46:31.371Z,33.80
2018-03-03T04:48:59.005Z,32.70
2018-03-03T04:51:26.578Z,33.17
2018-03-03T04:53:54.216Z,34.88
2018-03-03T04:56:21.776Z,36.17
2018-03-03T04:59:00.108Z,37.42
2018-03-03T05:04:35.127Z,39.70
2018-03-03T05:07:21.383Z,36.03
2018-03-03T05:09:49.039Z,37.10
2018-03-03T05:12:21.058Z,40.78
2018-03-03T05:14:54.247Z,38.28
2018-03-03T05:17:27.417Z,38.72
2018-03-03T05:20:00.663Z,36.05
2018-03-03T05:25:40.779Z,36.20
2018-03-03T05:28:23.237Z,34.20
2018-03-03T05:30:56.435Z,35.72
2018-03-03T05:33:43.193Z,34.28
2018-03-03T05:36:16.394Z,43.10
2018-03-03T05:38:43.991Z,35.80
2018-03-03T05:41:17.264Z,33.05
2018-03-03T05:44:02.704Z,36.22
2018-03-03T05:46:32.207Z,33.92
2018-03-03T05:49:14.670Z,35.72
2018-03-03T05:52:01.133Z,40.10
2018-03-03T05:54:34.390Z,38.47
2018-03-03T05:57:07.643Z,36.65
2018-03-03T05:59:52.048Z,36.75
2018-03-03T06:02:25.254Z,33.13
2018-03-03T06:04:57.443Z,36.08
2018-03-03T06:07:41.727Z,36.70
2018-03-03T06:10:11.930Z,35.83
2018-03-03T06:12:39.503Z,32.55
2018-03-03T06:15:07.502Z,34.47
2018-03-03T06:17:35.125Z,33.58
2018-03-03T06:20:02.745Z,33.80
2018-03-03T06:22:30.321Z,33.33
2018-03-03T06:24:57.882Z,31.40
2018-03-03T06:27:25.497Z,33.92
2018-03-03T06:29:53.066Z,34.25
2018-03-03T06:32:20.731Z,31.62
2018-03-03T06:34:48.330Z,32.95
2018-03-03T06:37:15.918Z,34.08
2018-03-03T06:39:43.485Z,32.03
2018-03-03T06:42:11.134Z,32.97
2018-03-03T06:44:38.723Z,35.50
2018-03-03T06:47:06.610Z,33.20
2018-03-03T06:49:34.223Z,34.25
2018-03-03T06:52:01.815Z,32.58
2018-03-03T06:54:29.378Z,40.45
2018-03-03T06:56:56.973Z,36.20
2018-03-03T06:59:24.542Z,36.63
2018-03-03T07:01:52.119Z,35.95
2018-03-03T07:04:19.683Z,36.55
2018-03-03T07:06:47.294Z,38.25
2018-03-03T07:09:14.841Z,38.42
2018-03-03T07:11:42.473Z,36.70
2018-03-03T07:14:10.030Z,36.38
2018-03-03T07:16:37.658Z,39.30
2018-03-03T07:19:05.221Z,36.15
2018-03-03T07:21:32.822Z,36.08
2018-03-03T07:24:00.415Z,37.83
2018-03-03T07:26:28.033Z,36.28
2018-03-03T07:28:55.614Z,38.03
2018-03-03T07:31:23.178Z,39.45
2018-03-03T07:33:50.810Z,37.17
2018-03-03T07:36:18.451Z,35.10
2018-03-03T07:38:46.038Z,34.38
2018-03-03T07:41:14.499Z,36.20
2018-03-03T07:43:42.126Z,36.05
2018-03-03T07:46:15.403Z,34.53
2018-03-03T07:48:43.009Z,31.90
2018-03-03T07:51:10.704Z,35.03
2018-03-03T07:53:38.341Z,36.92
2018-03-03T07:56:05.902Z,37.28
2018-03-03T07:58:45.405Z,37.42
2018-03-03T08:01:12.994Z,40.28
2018-03-03T08:03:40.597Z,37.38
2018-03-03T08:06:08.216Z,37.80
2018-03-03T08:08:35.803Z,41.40
2018-03-03T08:11:03.417Z,39.63
2018-03-03T08:13:31.009Z,40.65
2018-03-03T08:15:58.597Z,40.50
2018-03-03T08:18:26.200Z,38.65
2018-03-03T08:20:53.759Z,38.95
2018-03-03T08:23:21.357Z,40.65
2018-03-03T08:25:48.958Z,40.22
2018-03-03T08:28:18.580Z,40.45
2018-03-03T08:30:46.149Z,39.85
2018-03-03T08:33:13.924Z,38.95
2018-03-03T08:35:41.747Z,37.15
2018-03-03T08:38:09.482Z,40.58
2018-03-03T08:40:37.070Z,35.90
2018-03-03T08:43:04.644Z,37.05
2018-03-03T08:45:32.212Z,40.05
2018-03-03T08:47:59.823Z,40.97
2018-03-03T08:50:27.818Z,40.83
2018-03-03T08:52:55.394Z,40.95
2018-03-03T08:55:22.999Z,40.03
2018-03-03T08:57:50.611Z,42.15
2018-03-03T09:00:18.270Z,41.67
2018-03-03T09:02:45.870Z,40.50
2018-03-03T09:05:13.532Z,41.60
2018-03-03T09:07:41.119Z,41.60
2018-03-03T09:10:08.771Z,45.33
2018-03-03T09:12:36.352Z,43.43
2018-03-03T09:15:03.950Z,41.87
2018-03-03T09:17:31.542Z,42.00
2018-03-03T09:19:59.166Z,43.20
2018-03-03T09:22:26.786Z,41.57
2018-03-03T09:24:54.384Z,45.17
2018-03-03T09:27:21.943Z,42.83
2018-03-03T09:29:49.607Z,44.17
2018-03-03T09:32:17.193Z,45.10
2018-03-03T09:34:44.819Z,44.13
2018-03-03T09:37:12.407Z,44.93
2018-03-03T09:39:39.987Z,46.07
2018-03-03T09:42:07.549Z,44.37
2018-03-03T09:44:35.198Z,44.90
2018-03-03T09:47:02.930Z,45.10
2018-03-03T09:49:30.522Z,45.40
2018-03-03T09:51:58.497Z,44.77
2018-03-03T09:54:26.111Z,45.67
2018-03-03T09:56:53.682Z,42.83
2018-03-03T09:59:21.253Z,43.80
2018-03-03T10:01:52.332Z,42.83
2018-03-03T10:04:16.881Z,41.40
2018-03-03T10:06:44.478Z,40.90
2018-03-03T10:09:12.242Z,36.90
2018-03-03T10:11:40.045Z,38.53
2018-03-03T10:14:07.697Z,34.60
2018-03-03T10:16:35.347Z,34.90
2018-03-03T10:19:02.927Z,33.60
2018-03-03T10:21:30.560Z,32.03
2018-03-03T10:23:58.115Z,33.10
2018-03-03T10:26:25.769Z,32.17
2018-03-03T10:28:53.768Z,33.47
2018-03-03T10:31:21.343Z,33.13
2018-03-03T10:33:48.923Z,30.13
2018-03-03T10:36:16.692Z,31.70
2018-03-03T10:38:44.331Z,32.27
2018-03-03T10:41:11.946Z,31.03
2018-03-03T10:43:39.640Z,31.60
2018-03-03T10:46:07.246Z,32.53
2018-03-03T10:48:34.851Z,32.70
2018-03-03T10:51:02.457Z,33.27
2018-03-03T10:53:30.025Z,31.93
2018-03-03T10:55:57.688Z,31.67
2018-03-03T10:58:25.278Z,31.90
2018-03-03T11:00:52.939Z,33.30
2018-03-03T11:03:20.538Z,30.17
2018-03-03T11:05:48.183Z,30.43
2018-03-03T11:08:15.804Z,30.67
2018-03-03T11:10:43.361Z,31.63
2018-03-03T11:13:10.998Z,31.27
2018-03-03T11:15:38.571Z,29.40
2018-03-03T11:18:06.157Z,28.67
2018-03-03T11:20:37.744Z,27.93
2018-03-03T11:23:05.738Z,26.93
2018-03-03T11:25:33.401Z,28.73
2018-03-03T11:28:01.440Z,26.50
2018-03-03T11:30:29.543Z,26.70
2018-03-03T11:32:57.155Z,27.47
2018-03-03T11:35:24.752Z,26.87
2018-03-03T11:37:52.441Z,27.30
2018-03-03T11:40:20.078Z,28.40
2018-03-03T11:42:47.670Z,26.03
2018-03-03T11:45:15.279Z,24.20
2018-03-03T11:47:42.862Z,26.33
2018-03-03T11:50:10.410Z,25.10
2018-03-03T11:52:38.003Z,26.17
2018-03-03T11:55:05.614Z,26.83
2018-03-03T11:57:33.221Z,27.07
2018-03-03T12:00:00.791Z,26.70
2018-03-03T12:02:28.386Z,27.03
2018-03-03T12:04:55.979Z,28.17
2018-03-03T12:07:23.702Z,28.00
2018-03-03T12:09:52.286Z,26.87
2018-03-03T12:12:20.257Z,29.43
2018-03-03T12:14:51.139Z,26.90
2018-03-03T12:17:23.474Z,24.97
2018-03-03T12:19:51.254Z,27.37
2018-03-03T12:22:18.869Z,26.20
2018-03-03T12:24:46.819Z,27.43
2018-03-03T12:27:14.395Z,26.27
2018-03-03T12:29:42.792Z,28.67
2018-03-03T12:32:10.586Z,26.97
2018-03-03T12:34:38.170Z,27.33
2018-03-03T12:37:05.749Z,27.53
2018-03-03T12:39:33.387Z,27.37
2018-03-03T12:42:01.004Z,31.90
2018-03-03T12:44:28.600Z,30.30
2018-03-03T12:46:59.602Z,29.33
2018-03-03T12:49:27.320Z,28.87
2018-03-03T12:52:07.660Z,28.43
2018-03-03T12:54:48.099Z,31.60
2018-03-03T12:57:15.680Z,29.63
2018-03-03T12:59:43.288Z,29.80
2018-03-03T13:02:17.497Z,26.03
2018-03-03T13:04:45.513Z,28.80
2018-03-03T13:07:13.100Z,26.63
2018-03-03T13:09:46.622Z,26.03
2018-03-03T13:12:14.264Z,26.63
2018-03-03T13:14:41.883Z,24.70
2018-03-03T13:17:09.493Z,26.23
2018-03-03T13:19:48.747Z,27.67
2018-03-03T13:22:22.643Z,28.23
2018-03-03T13:24:50.273Z,29.33
2018-03-03T13:27:17.898Z,28.77
2018-03-03T13:29:45.535Z,27.03
2018-03-03T13:32:13.214Z,28.67
2018-03-03T13:34:40.863Z,28.47
2018-03-03T13:37:08.459Z,27.37
2018-03-03T13:39:36.024Z,27.43
2018-03-03T13:42:03.703Z,28.60
2018-03-03T13:44:31.734Z,29.07
2018-03-03T13:46:59.458Z,25.83
2018-03-03T13:49:27.070Z,26.13
2018-03-03T13:51:54.791Z,26.13
2018-03-03T13:54:22.478Z,24.43
2018-03-03T13:56:50.069Z,22.90
2018-03-03T13:59:17.685Z,22.20
2018-03-03T14:01:45.245Z,34.67
2018-03-03T14:04:12.904Z,34.53
2018-03-03T14:06:40.455Z,34.93
2018-03-03T14:09:08.106Z,33.90
2018-03-03T14:11:35.833Z,36.40
2018-03-03T14:14:03.482Z,37.23
2018-03-03T14:16:31.078Z,36.23
2018-03-03T14:18:58.682Z,36.50
2018-03-03T14:21:26.236Z,35.33
2018-03-03T14:23:53.903Z,35.03
2018-03-03T14:26:47.410Z,35.80
2018-03-03T14:29:15.066Z,35.60
2018-03-03T14:31:43.065Z,33.93
2018-03-03T14:34:10.668Z,38.73
2018-03-03T14:36:38.349Z,38.10
2018-03-03T14:39:06.010Z,36.37
2018-03-03T14:41:33.627Z,38.83
2018-03-03T14:44:01.250Z,36.80
2018-03-03T14:46:28.818Z,38.83
2018-03-03T14:48:56.423Z,44.83
2018-03-03T14:51:24.012Z,40.10
2018-03-03T14:53:51.615Z,37.70
2018-03-03T14:56:19.236Z,37.87
2018-03-03T14:58:46.826Z,37.87
2018-03-03T15:01:14.449Z,38.73
2018-03-03T15:03:42.017Z,37.37
2018-03-03T15:06:13.522Z,38.03
2018-03-03T15:08:41.088Z,41.10
2018-03-03T15:11:08.729Z,41.03
2018-03-03T15:13:36.361Z,40.40
2018-03-03T15:16:03.943Z,40.13
2018-03-03T15:18:31.514Z,38.90
2018-03-03T15:20:59.137Z,41.93
2018-03-03T15:23:26.694Z,42.57
2018-03-03T15:25:54.331Z,41.10
2018-03-03T15:28:21.907Z,44.87
2018-03-03T15:30:49.496Z,42.60
2018-03-03T15:33:17.048Z,40.60
2018-03-03T15:35:44.630Z,40.63
2018-03-03T15:38:12.214Z,42.83
2018-03-03T15:40:40.191Z,40.33
2018-03-03T15:43:07.829Z,41.90
2018-03-03T15:45:35.414Z,41.77
2018-03-03T15:48:03.165Z,44.10
2018-03-03T15:50:30.959Z,43.13
2018-03-03T15:52:58.554Z,43.80
2018-03-03T15:55:26.170Z,44.80
2018-03-03T15:57:53.764Z,41.47
2018-03-03T16:00:21.408Z,42.93
2018-03-03T16:02:49.034Z,44.80
2018-03-03T16:05:16.709Z,43.57
2018-03-03T16:07:44.263Z,42.97
2018-03-03T16:10:11.835Z,43.87
2018-03-03T16:12:39.672Z,43.93
2018-03-03T16:15:07.292Z,46.43
2018-03-03T16:17:34.858Z,46.53
2018-03-03T16:20:02.514Z,46.07
2018-03-03T16:22:30.095Z,45.27
2018-03-03T16:24:58.123Z,43.50
2018-03-03T16:27:25.706Z,47.77
2018-03-03T16:29:53.318Z,46.03
2018-03-03T16:32:21.354Z,46.40
2018-03-03T16:34:49.027Z,47.27
2018-03-03T16:37:16.628Z,45.17
2018-03-03T16:39:44.259Z,46.13
2018-03-03T16:42:11.857Z,45.27
2018-03-03T16:44:39.443Z,45.30
2018-03-03T16:47:07.052Z,46.83
2018-03-03T16:49:34.811Z,44.87
2018-03-03T16:52:02.430Z,47.00
2018-03-03T16:54:29.995Z,48.03
2018-03-03T16:56:57.593Z,48.43
2018-03-03T16:59:25.312Z,48.87
2018-03-03T17:01:52.919Z,47.00
2018-03-03T17:04:20.527Z,49.93
2018-03-03T17:06:48.135Z,48.37
2018-03-03T17:09:15.739Z,48.37
2018-03-03T17:11:43.340Z,51.53
2018-03-03T17:14:10.906Z,52.03
2018-03-03T17:16:38.509Z,51.37
2018-03-03T17:19:06.098Z,52.67
2018-03-03T17:21:33.702Z,51.47
2018-03-03T17:24:01.273Z,48.93
2018-03-03T17:26:28.863Z,48.27
2018-03-03T17:28:56.415Z,48.13
2018-03-03T17:31:24.045Z,48.97
2018-03-03T17:33:51.614Z,48.20
2018-03-03T17:36:19.234Z,48.93
2018-03-03T17:38:46.852Z,45.63
2018-03-03T17:41:14.903Z,47.97
2018-03-03T17:43:42.560Z,45.20
2018-03-03T17:46:10.131Z,46.43
2018-03-03T17:48:37.766Z,45.77
2018-03-03T17:51:05.339Z,44.87
2018-03-03T17:53:32.990Z,46.27
2018-03-03T17:56:00.594Z,46.07
2018-03-03T17:58:28.235Z,45.30
2018-03-03T18:00:56.239Z,47.33
2018-03-03T18:03:23.830Z,49.03
2018-03-03T18:05:51.420Z,47.97
2018-03-03T18:08:18.991Z,50.10
2018-03-03T18:10:46.962Z,48.43
2018-03-03T18:13:29.000Z,47.07
2018-03-03T18:15:56.560Z,49.00
2018-03-03T18:18:24.154Z,50.30
2018-03-03T18:20:51.716Z,53.47
2018-03-03T18:23:19.868Z,46.33
2018-03-03T18:25:47.543Z,50.43
2018-03-03T18:28:15.175Z,50.97
2018-03-03T18:30:42.871Z,48.67
2018-03-03T18:33:10.466Z,49.77
2018-03-03T18:35:38.068Z,50.03
2018-03-03T18:38:05.660Z,48.30
2018-03-03T18:40:33.627Z,52.07
2018-03-03T18:43:01.258Z,53.57
2018-03-03T18:45:28.878Z,50.80
2018-03-03T18:47:56.434Z,48.80
2018-03-03T18:50:24.084Z,47.30
2018-03-03T18:52:51.634Z,53.03
2018-03-03T18:55:19.246Z,52.13
2018-03-03T18:57:46.890Z,50.77
2018-03-03T19:00:14.483Z,53.63
2018-03-03T19:02:42.077Z,52.10
2018-03-03T19:05:09.691Z,49.23
2018-03-03T19:07:37.258Z,52.03
2018-03-03T19:10:05.585Z,53.70
2018-03-03T19:12:33.134Z,50.67
2018-03-03T19:15:00.758Z,51.50
2018-03-03T19:17:28.398Z,52.80
2018-03-03T19:19:56.031Z,51.23
2018-03-03T19:22:23.626Z,51.87
2018-03-03T19:24:51.239Z,52.60
2018-03-03T19:27:18.799Z,54.77
2018-03-03T19:29:46.424Z,54.77
2018-03-03T19:32:14.031Z,53.00
2018-03-03T19:34:41.631Z,54.03
2018-03-03T19:37:09.630Z,54.70
2018-03-03T19:39:37.276Z,51.10
2018-03-03T19:42:04.928Z,50.77
2018-03-03T19:44:32.542Z,52.23
2018-03-03T19:47:00.119Z,50.10
2018-03-03T19:49:27.788Z,50.47
2018-03-03T19:51:55.358Z,53.43
2018-03-03T19:54:22.978Z,52.80
2018-03-03T19:56:50.567Z,52.87
2018-03-03T19:59:18.178Z,51.60
2018-03-03T20:01:45.769Z,50.13
2018-03-03T20:04:13.375Z,52.97
2018-03-03T20:06:40.991Z,53.07
2018-03-03T20:09:08.598Z,50.03
2018-03-03T20:11:36.202Z,54.33
2018-03-03T20:14:03.790Z,53.77
2018-03-03T20:16:31.783Z,52.40
2018-03-03T20:18:59.340Z,52.13
2018-03-03T20:21:26.967Z,54.03
2018-03-03T20:23:54.531Z,55.43
2018-03-03T20:26:22.154Z,53.97
2018-03-03T20:28:50.147Z,53.30
2018-03-03T20:31:17.791Z,52.90
2018-03-03T20:33:45.350Z,53.90
2018-03-03T20:36:12.958Z,50.43
2018-03-03T20:38:40.556Z,55.27
2018-03-03T20:41:08.180Z,57.30
2018-03-03T20:43:35.799Z,55.23
2018-03-03T20:46:03.419Z,54.00
2018-03-03T20:48:31.066Z,52.73
2018-03-03T20:50:58.695Z,47.67
2018-03-03T20:53:26.242Z,49.17
2018-03-03T20:55:54.070Z,52.00
2018-03-03T20:58:21.940Z,48.70
2018-03-03T21:00:49.515Z,51.00
2018-03-03T21:03:17.140Z,50.77
2018-03-03T21:05:44.695Z,47.50
2018-03-03T21:08:12.330Z,50.53
2018-03-03T21:10:40.719Z,48.47
2018-03-03T21:13:08.412Z,53.33
2018-03-03T21:15:36.401Z,49.30
2018-03-03T21:18:04.048Z,51.90
2018-03-03T21:20:31.649Z,49.73
2018-03-03T21:23:00.214Z,50.77
2018-03-03T21:25:27.792Z,50.40
2018-03-03T21:27:55.796Z,53.17
2018-03-03T21:30:23.375Z,49.90
2018-03-03T21:32:50.988Z,49.40
2018-03-03T21:35:18.982Z,52.60
2018-03-03T21:37:46.591Z,49.03
2018-03-03T21:40:14.339Z,46.70
2018-03-03T21:42:42.343Z,45.93
2018-03-03T21:45:09.935Z,46.97
2018-03-03T21:47:37.526Z,48.57
2018-03-03T21:50:05.103Z,48.03
2018-03-03T21:52:32.742Z,50.07
2018-03-03T21:55:00.313Z,49.90
2018-03-03T21:57:27.942Z,50.97
2018-03-03T21:59:55.494Z,52.90
2018-03-03T22:02:23.158Z,51.33
2018-03-03T22:04:50.771Z,54.00
2018-03-03T22:07:20.574Z,50.30
2018-03-03T22:09:48.639Z,52.83
2018-03-03T22:12:16.235Z,50.83
2018-03-03T22:14:43.838Z,49.27
2018-03-03T22:17:11.478Z,59.00
2018-03-03T22:19:39.138Z,51.57
2018-03-03T22:22:06.769Z,52.63
2018-03-03T22:24:34.367Z,49.67
2018-03-03T22:27:01.934Z,47.63
2018-03-03T22:29:29.550Z,45.50
2018-03-03T22:31:57.137Z,46.73
2018-03-03T22:34:24.744Z,50.70
2018-03-03T22:36:52.731Z,52.20
2018-03-03T22:39:20.320Z,53.00
2018-03-03T22:41:47.878Z,54.03
2018-03-03T22:44:15.497Z,53.57
2018-03-03T22:46:44.507Z,51.00
2018-03-03T22:49:12.102Z,54.67
2018-03-03T22:51:39.756Z,53.70
2018-03-03T22:54:07.564Z,53.87
2018-03-03T22:56:35.612Z,49.43
2018-03-03T22:59:03.222Z,56.13
2018-03-03T23:01:30.818Z,54.10
2018-03-03T23:03:58.450Z,58.63
2018-03-03T23:06:26.061Z,53.07
2018-03-03T23:08:53.678Z,51.07
2018-03-03T23:11:21.239Z,48.50
2018-03-03T23:13:48.856Z,53.07
2018-03-03T23:16:16.453Z,54.37
2018-03-03T23:18:44.075Z,49.33
2018-03-03T23:21:11.674Z,53.57
2018-03-03T23:23:39.240Z,53.93
2018-03-03T23:26:07.214Z,53.30
2018-03-03T23:28:34.772Z,50.83
2018-03-03T23:31:02.458Z,52.73
2018-03-03T23:33:30.016Z,54.03
2018-03-03T23:35:57.622Z,50.77
2018-03-03T23:38:25.170Z,52.33
2018-03-03T23:40:52.751Z,55.03
2018-03-03T23:43:20.313Z,55.37
2018-03-03T23:45:47.929Z,51.17
2018-03-03T23:48:15.543Z,51.43
2018-03-03T23:50:43.133Z,52.07
2018-03-03T23:53:10.718Z,48.70
2018-03-03T23:55:38.285Z,51.07
2018-03-03T23:58:05.883Z,51.50
